createdAt,value
2018-12-05T00:00:55.952Z,4.00
2018-12-05T00:03:30.269Z,3.90
2018-12-05T00:06:04.179Z,3.70
2018-12-05T00:08:38.392Z,3.60
2018-12-05T00:11:12.443Z,3.60
2018-12-05T00:13:46.514Z,3.50
2018-12-05T00:16:20.458Z,3.30
2018-12-05T00:18:54.849Z,3.20
2018-12-05T00:21:29.736Z,3.10
2018-12-05T00:24:04.210Z,3.10
2018-12-05T00:26:38.039Z,3.00
2018-12-05T00:29:12.245Z,3.00
2018-12-05T00:31:46.345Z,3.00
2018-12-05T00:34:20.760Z,2.90
2018-12-05T00:36:54.604Z,2.90
2018-12-05T00:39:28.679Z,2.80
2018-12-05T00:42:02.632Z,2.80
2018-12-05T00:44:36.719Z,2.80
2018-12-05T00:47:10.726Z,2.70
2018-12-05T00:49:44.827Z,2.70
2018-12-05T00:52:18.947Z,2.70
2018-12-05T00:54:53.267Z,2.60
2018-12-05T00:57:27.727Z,2.60
2018-12-05T01:00:02.516Z,2.60
2018-12-05T01:02:36.432Z,2.60
2018-12-05T01:05:10.644Z,2.60
2018-12-05T01:07:44.694Z,2.60
2018-12-05T01:10:19.997Z,2.60
2018-12-05T01:12:54.008Z,2.60
2018-12-05T01:15:28.427Z,2.50
2018-12-05T01:18:02.431Z,2.50
2018-12-05T01:20:36.959Z,2.50
2018-12-05T01:23:11.079Z,2.40
2018-12-05T01:25:45.391Z,2.40
2018-12-05T01:28:20.472Z,2.40
2018-12-05T01:30:54.651Z,2.40
2018-12-05T01:33:28.895Z,2.40
2018-12-05T01:36:03.087Z,2.30
2018-12-05T01:38:37.001Z,2.30
2018-12-05T01:41:11.208Z,2.30
2018-12-05T01:43:47.068Z,2.30
2018-12-05T01:46:21.484Z,2.30
2018-12-05T01:48:55.535Z,2.20
2018-12-05T01:51:29.742Z,2.20
2018-12-05T01:54:03.803Z,2.30
2018-12-05T01:56:38.036Z,2.30
2018-12-05T01:59:11.986Z,2.20
2018-12-05T02:01:46.373Z,2.20
2018-12-05T02:04:21.383Z,2.20
2018-12-05T02:06:55.730Z,2.20
2018-12-05T02:09:29.763Z,2.10
2018-12-05T02:12:03.748Z,2.20
2018-12-05T02:14:37.695Z,2.10
2018-12-05T02:17:11.873Z,2.10
2018-12-05T02:19:45.905Z,2.10
2018-12-05T02:22:20.305Z,2.10
2018-12-05T02:24:55.031Z,2.10
2018-12-05T02:27:29.186Z,2.00
2018-12-05T02:30:03.889Z,2.00
2018-12-05T02:32:37.898Z,2.00
2018-12-05T02:35:12.038Z,2.00
2018-12-05T02:37:46.215Z,2.00
2018-12-05T02:40:20.230Z,2.00
2018-12-05T02:42:54.647Z,2.00
2018-12-05T02:45:28.534Z,2.00
2018-12-05T02:48:02.778Z,2.10
2018-12-05T02:50:36.707Z,2.10
2018-12-05T02:53:17.178Z,2.10
2018-12-05T02:55:51.093Z,2.10
2018-12-05T02:58:25.684Z,2.00
2018-12-05T03:00:59.895Z,2.00
2018-12-05T03:03:33.934Z,2.00
2018-12-05T03:06:08.118Z,2.00
2018-12-05T03:08:42.188Z,2.00
2018-12-05T03:11:17.120Z,2.00
2018-12-05T03:13:51.391Z,1.90
2018-12-05T03:16:26.319Z,1.90
2018-12-05T03:19:00.339Z,1.90
2018-12-05T03:21:34.372Z,1.90
2018-12-05T03:24:08.666Z,1.90
2018-12-05T03:26:43.431Z,1.90
2018-12-05T03:29:17.690Z,1.90
2018-12-05T03:31:52.139Z,1.90
2018-12-05T03:34:26.351Z,1.90
2018-12-05T03:37:00.280Z,1.90
2018-12-05T03:39:34.384Z,1.90
2018-12-05T03:42:08.338Z,1.80
2018-12-05T03:44:42.495Z,1.80
2018-12-05T03:47:16.631Z,1.80
2018-12-05T03:49:53.012Z,1.80
2018-12-05T03:52:27.042Z,1.80
2018-12-05T03:55:01.209Z,1.80
2018-12-05T03:57:35.424Z,1.80
2018-12-05T04:00:09.550Z,1.80
2018-12-05T04:02:43.595Z,1.80
2018-12-05T04:05:17.666Z,1.70
2018-12-05T04:07:51.723Z,1.70
2018-12-05T04:10:26.264Z,1.70
2018-12-05T04:13:00.528Z,1.70
2018-12-05T04:15:34.888Z,1.70
2018-12-05T04:18:08.987Z,1.70
2018-12-05T04:20:43.270Z,1.70
2018-12-05T04:23:17.311Z,1.70
2018-12-05T04:25:51.492Z,1.70
2018-12-05T04:28:25.659Z,1.70
2018-12-05T04:31:00.071Z,1.60
2018-12-05T04:33:33.902Z,1.60
2018-12-05T04:36:08.156Z,1.60
2018-12-05T04:38:42.267Z,1.60
2018-12-05T04:41:17.273Z,1.60
2018-12-05T04:43:51.344Z,1.60
2018-12-05T04:46:25.633Z,1.60
2018-12-05T04:48:59.640Z,1.60
2018-12-05T04:51:34.046Z,1.60
2018-12-05T04:54:08.087Z,1.60
2018-12-05T04:56:43.015Z,1.60
2018-12-05T04:59:16.972Z,1.50
2018-12-05T05:01:51.755Z,1.50
2018-12-05T05:04:25.886Z,1.60
2018-12-05T05:07:00.080Z,1.60
2018-12-05T05:09:34.097Z,1.50
2018-12-05T05:12:08.212Z,1.50
2018-12-05T05:14:42.180Z,1.60
2018-12-05T05:17:16.195Z,1.60
2018-12-05T05:19:50.099Z,1.60
2018-12-05T05:22:24.452Z,1.50
2018-12-05T05:24:58.838Z,1.50
2018-12-05T05:27:33.229Z,1.50
2018-12-05T05:30:07.549Z,1.50
2018-12-05T05:32:41.731Z,1.40
2018-12-05T05:35:16.203Z,1.50
2018-12-05T05:37:50.867Z,1.50
2018-12-05T05:40:24.837Z,1.50
2018-12-05T05:42:59.011Z,1.50
2018-12-05T05:45:32.940Z,1.50
2018-12-05T05:48:07.023Z,1.40
2018-12-05T05:50:41.047Z,1.50
2018-12-05T05:53:15.163Z,1.50
2018-12-05T05:55:49.903Z,1.50
2018-12-05T05:58:24.311Z,1.50
2018-12-05T06:00:59.135Z,1.50
2018-12-05T06:03:33.291Z,1.60
2018-12-05T06:06:07.567Z,1.50
2018-12-05T06:08:42.304Z,1.50
2018-12-05T06:11:16.728Z,1.60
2018-12-05T06:13:50.670Z,1.60
2018-12-05T06:16:24.850Z,1.60
2018-12-05T06:18:59.614Z,1.50
2018-12-05T06:21:33.684Z,1.50
2018-12-05T06:24:07.619Z,1.50
2018-12-05T06:26:42.015Z,1.50
2018-12-05T06:29:16.850Z,1.50
2018-12-05T06:31:50.986Z,1.60
2018-12-05T06:34:25.030Z,1.50
2018-12-05T06:36:59.194Z,1.60
2018-12-05T06:39:33.136Z,1.50
2018-12-05T06:42:07.417Z,1.50
2018-12-05T06:44:41.242Z,1.50
2018-12-05T06:47:15.834Z,1.50
2018-12-05T06:49:49.877Z,1.50
2018-12-05T06:52:24.286Z,1.50
2018-12-05T06:54:58.107Z,1.50
2018-12-05T06:57:32.513Z,1.50
2018-12-05T07:00:08.184Z,1.50
2018-12-05T07:02:42.582Z,1.50
2018-12-05T07:05:17.115Z,1.70
2018-12-05T07:07:51.523Z,1.80
2018-12-05T07:10:25.690Z,1.90
2018-12-05T07:12:59.966Z,1.90
2018-12-05T07:15:34.458Z,2.00
2018-12-05T07:18:08.710Z,1.90
2018-12-05T07:20:42.610Z,1.80
2018-12-05T07:23:16.718Z,1.80
2018-12-05T07:25:50.864Z,1.80
2018-12-05T07:28:25.152Z,1.80
2018-12-05T07:30:59.114Z,1.80
2018-12-05T07:33:33.796Z,1.80
2018-12-05T07:36:07.782Z,1.80
2018-12-05T07:38:42.031Z,1.90
2018-12-05T07:41:16.775Z,1.90
2018-12-05T07:43:51.615Z,2.00
2018-12-05T07:46:25.538Z,1.90
2018-12-05T07:48:59.815Z,2.00
2018-12-05T07:51:34.059Z,2.00
2018-12-05T07:54:08.243Z,1.90
2018-12-05T07:56:42.119Z,2.00
2018-12-05T07:59:16.473Z,2.00
2018-12-05T08:01:50.601Z,2.00
2018-12-05T08:04:24.722Z,2.10
2018-12-05T08:06:58.842Z,2.10
2018-12-05T08:09:32.934Z,2.20
2018-12-05T08:12:07.463Z,2.20
2018-12-05T08:14:42.506Z,2.20
2018-12-05T08:17:16.538Z,2.30
2018-12-05T08:19:51.537Z,2.30
2018-12-05T08:22:25.460Z,2.30
2018-12-05T08:24:59.558Z,2.30
2018-12-05T08:27:33.511Z,2.40
2018-12-05T08:30:07.879Z,2.40
2018-12-05T08:32:42.210Z,2.40
2018-12-05T08:35:16.531Z,2.50
2018-12-05T08:37:50.511Z,2.50
2018-12-05T08:40:26.709Z,2.50
2018-12-05T08:43:00.892Z,2.60
2018-12-05T08:45:35.336Z,2.70
2018-12-05T08:48:09.414Z,2.70
2018-12-05T08:50:43.662Z,2.80
2018-12-05T08:53:17.679Z,2.90
2018-12-05T08:55:51.993Z,3.00
2018-12-05T08:58:26.096Z,3.00
2018-12-05T09:01:00.615Z,3.10
2018-12-05T09:03:34.668Z,3.20
2018-12-05T09:06:09.058Z,3.30
2018-12-05T09:08:43.600Z,3.40
2018-12-05T09:11:18.007Z,3.40
2018-12-05T09:13:52.092Z,3.50
2018-12-05T09:16:26.851Z,3.60
2018-12-05T09:19:00.718Z,3.70
2018-12-05T09:21:35.298Z,3.70
2018-12-05T09:24:10.116Z,3.80
2018-12-05T09:26:44.332Z,3.90
2018-12-05T09:29:18.316Z,3.90
2018-12-05T09:31:52.478Z,3.90
2018-12-05T09:34:26.474Z,3.90
2018-12-05T09:37:00.529Z,4.00
2018-12-05T09:39:34.423Z,4.00
2018-12-05T09:42:08.601Z,4.00
2018-12-05T09:44:42.611Z,4.10
2018-12-05T09:47:16.798Z,4.00
2018-12-05T09:49:50.776Z,4.10
2018-12-05T09:52:25.676Z,4.10
2018-12-05T09:54:59.538Z,4.10
2018-12-05T09:57:34.340Z,4.10
2018-12-05T10:00:08.955Z,4.10
2018-12-05T10:02:43.031Z,4.10
2018-12-05T10:05:16.946Z,4.10
2018-12-05T10:07:51.288Z,4.10
2018-12-05T10:10:25.950Z,4.10
2018-12-05T10:13:00.232Z,4.10
2018-12-05T10:15:34.310Z,4.20
2018-12-05T10:18:09.066Z,4.10
2018-12-05T10:20:43.042Z,4.10
2018-12-05T10:23:17.584Z,4.10
2018-12-05T10:25:51.467Z,4.10
2018-12-05T10:28:25.624Z,4.10
2018-12-05T10:30:59.511Z,4.10
2018-12-05T10:33:33.544Z,4.10
2018-12-05T10:36:07.505Z,4.10
2018-12-05T10:38:41.892Z,4.10
2018-12-05T10:41:15.897Z,4.10
2018-12-05T10:43:50.220Z,4.10
2018-12-05T10:46:24.147Z,4.00
2018-12-05T10:48:58.233Z,4.00
2018-12-05T10:51:32.191Z,4.00
2018-12-05T10:54:06.561Z,4.00
2018-12-05T10:56:40.518Z,4.00
2018-12-05T10:59:14.530Z,4.10
2018-12-05T11:01:54.475Z,4.10
2018-12-05T11:04:34.492Z,4.10
2018-12-05T11:07:09.032Z,4.20
2018-12-05T11:09:48.856Z,4.30
2018-12-05T11:12:28.385Z,4.40
2018-12-05T11:18:11.990Z,4.40
2018-12-05T11:20:52.071Z,4.50
2018-12-05T11:23:31.960Z,4.60
2018-12-05T11:26:11.499Z,4.50
2018-12-05T11:28:46.345Z,4.50
2018-12-05T11:31:20.810Z,4.40
2018-12-05T11:33:55.076Z,4.40
2018-12-05T11:36:29.131Z,4.40
2018-12-05T11:39:03.335Z,4.40
2018-12-05T11:41:37.243Z,4.50
2018-12-05T11:44:11.627Z,4.50
2018-12-05T11:46:45.602Z,4.60
2018-12-05T11:49:19.854Z,4.60
2018-12-05T11:51:53.767Z,4.50
2018-12-05T11:54:27.895Z,4.40
2018-12-05T11:57:01.941Z,4.40
2018-12-05T11:59:36.288Z,4.50
2018-12-05T12:02:10.426Z,4.50
2018-12-05T12:04:44.589Z,4.50
2018-12-05T12:07:18.652Z,4.50
2018-12-05T12:09:53.183Z,4.50
2018-12-05T12:12:32.888Z,4.60
2018-12-05T12:15:07.550Z,4.60
2018-12-05T12:17:42.176Z,4.60
2018-12-05T12:20:16.617Z,4.60
2018-12-05T12:22:50.503Z,4.70
2018-12-05T12:25:24.826Z,4.80
2018-12-05T12:27:59.102Z,4.80
2018-12-05T12:30:34.580Z,4.80
2018-12-05T12:33:08.507Z,4.80
2018-12-05T12:35:42.818Z,4.70
2018-12-05T12:38:17.248Z,4.70
2018-12-05T12:40:51.450Z,4.70
2018-12-05T12:43:25.350Z,4.70
2018-12-05T12:45:59.576Z,4.80
2018-12-05T12:48:33.455Z,4.90
2018-12-05T12:51:07.515Z,4.90
2018-12-05T12:53:41.678Z,5.00
2018-12-05T12:56:15.803Z,5.00
2018-12-05T12:58:49.886Z,5.00
2018-12-05T13:01:24.158Z,4.90
2018-12-05T13:03:58.158Z,4.90
2018-12-05T13:06:32.687Z,5.00
2018-12-05T13:09:07.211Z,5.10
2018-12-05T13:11:42.064Z,5.10
2018-12-05T13:14:17.185Z,5.10
2018-12-05T13:16:51.379Z,5.10
2018-12-05T13:19:26.082Z,5.10
2018-12-05T13:22:00.452Z,5.00
2018-12-05T13:24:34.491Z,5.00
2018-12-05T13:27:08.480Z,4.90
2018-12-05T13:29:42.382Z,4.80
2018-12-05T13:32:16.597Z,4.80
2018-12-05T13:34:50.738Z,4.80
2018-12-05T13:37:25.442Z,4.70
2018-12-05T13:39:59.593Z,4.70
2018-12-05T13:42:34.588Z,4.70
2018-12-05T13:45:08.587Z,4.60
2018-12-05T13:47:42.918Z,4.60
2018-12-05T13:50:17.047Z,4.50
2018-12-05T13:52:51.251Z,4.50
2018-12-05T13:55:25.187Z,4.40
2018-12-05T13:57:59.414Z,4.40
2018-12-05T14:00:33.978Z,4.40
2018-12-05T14:03:09.014Z,4.30
2018-12-05T14:05:43.938Z,4.30
2018-12-05T14:08:18.392Z,4.30
2018-12-05T14:10:52.235Z,4.20
2018-12-05T14:13:26.422Z,4.20
2018-12-05T14:16:00.907Z,4.20
2018-12-05T14:18:35.359Z,4.10
2018-12-05T14:21:09.955Z,4.10
2018-12-05T14:23:44.147Z,4.10
2018-12-05T14:26:18.019Z,4.10
2018-12-05T14:28:52.091Z,4.10
2018-12-05T14:31:26.237Z,4.00
2018-12-05T14:34:00.317Z,4.00
2018-12-05T14:36:34.367Z,4.00
2018-12-05T14:39:09.090Z,4.00
2018-12-05T14:41:43.858Z,4.00
2018-12-05T14:44:18.340Z,4.00
2018-12-05T14:46:53.419Z,4.00
2018-12-05T14:49:28.006Z,3.90
2018-12-05T14:52:02.118Z,3.90
2018-12-05T14:54:36.334Z,3.90
2018-12-05T14:57:10.237Z,3.80
2018-12-05T14:59:44.459Z,3.80
2018-12-05T15:02:19.235Z,3.80
2018-12-05T15:04:53.813Z,3.80
2018-12-05T15:07:27.895Z,3.70
2018-12-05T15:10:02.151Z,3.70
2018-12-05T15:12:37.105Z,3.70
2018-12-05T15:15:11.440Z,3.70
2018-12-05T15:17:45.983Z,3.70
2018-12-05T15:20:20.151Z,3.80
2018-12-05T15:22:53.961Z,3.70
2018-12-05T15:25:28.110Z,3.70
2018-12-05T15:28:02.151Z,3.70
2018-12-05T15:30:36.982Z,3.70
2018-12-05T15:33:10.895Z,3.70
2018-12-05T15:35:45.230Z,3.60
2018-12-05T15:38:19.655Z,3.50
2018-12-05T15:40:53.865Z,3.40
2018-12-05T15:43:27.668Z,3.40
2018-12-05T15:46:01.788Z,3.40
2018-12-05T15:48:36.037Z,3.40
2018-12-05T15:51:10.092Z,3.40
2018-12-05T15:53:44.003Z,3.40
2018-12-05T15:56:18.135Z,3.40
2018-12-05T15:58:52.080Z,3.30
2018-12-05T16:01:26.470Z,3.30
2018-12-05T16:04:00.470Z,3.30
2018-12-05T16:06:34.599Z,3.20
2018-12-05T16:09:10.870Z,3.10
2018-12-05T16:11:45.088Z,3.20
2018-12-05T16:14:21.335Z,3.20
2018-12-05T16:16:55.673Z,3.10
2018-12-05T16:19:29.546Z,3.10
2018-12-05T16:22:03.781Z,3.00
2018-12-05T16:24:37.814Z,3.10
2018-12-05T16:27:12.146Z,3.20
2018-12-05T16:29:46.228Z,3.10
2018-12-05T16:32:20.672Z,3.10
2018-12-05T16:34:54.750Z,3.20
2018-12-05T16:37:28.893Z,3.30
2018-12-05T16:40:02.997Z,3.30
2018-12-05T16:42:37.389Z,3.40
2018-12-05T16:45:11.321Z,3.50
2018-12-05T16:47:45.542Z,3.60
2018-12-05T16:50:19.481Z,3.60
2018-12-05T16:52:53.765Z,3.70
2018-12-05T16:55:28.019Z,3.70
2018-12-05T16:58:02.091Z,3.80
2018-12-05T17:00:36.086Z,3.80
2018-12-05T17:03:10.324Z,3.80
2018-12-05T17:05:44.490Z,3.80
2018-12-05T17:08:18.455Z,3.80
2018-12-05T17:10:52.464Z,3.80
2018-12-05T17:13:26.883Z,3.70
2018-12-05T17:16:00.823Z,3.70
2018-12-05T17:18:34.907Z,3.70
2018-12-05T17:21:10.579Z,3.70
2018-12-05T17:23:45.498Z,3.70
2018-12-05T17:26:19.550Z,3.70
2018-12-05T17:28:53.831Z,3.70
2018-12-05T17:31:27.955Z,3.70
2018-12-05T17:34:02.592Z,3.70
2018-12-05T17:36:37.192Z,3.80
2018-12-05T17:39:11.330Z,3.80
2018-12-05T17:41:45.503Z,3.80
2018-12-05T17:44:20.050Z,3.80
2018-12-05T17:46:54.152Z,3.80
2018-12-05T17:49:28.163Z,3.80
2018-12-05T17:52:02.179Z,3.80
2018-12-05T17:54:37.934Z,3.80
2018-12-05T17:57:12.043Z,3.70
2018-12-05T17:59:46.261Z,3.70
2018-12-05T18:02:20.373Z,3.70
2018-12-05T18:04:54.589Z,3.70
2018-12-05T18:07:28.639Z,3.70
2018-12-05T18:10:02.925Z,3.70
2018-12-05T18:12:37.126Z,3.70
2018-12-05T18:15:11.367Z,3.70
2018-12-05T18:17:45.670Z,3.70
2018-12-05T18:20:19.819Z,3.70
2018-12-05T18:22:53.799Z,3.70
2018-12-05T18:25:27.819Z,3.70
2018-12-05T18:28:01.886Z,3.70
2018-12-05T18:30:36.694Z,3.70
2018-12-05T18:33:10.849Z,3.80
2018-12-05T18:35:46.506Z,3.80
2018-12-05T18:38:21.250Z,3.70
2018-12-05T18:40:55.286Z,3.80
2018-12-05T18:43:29.828Z,3.70
2018-12-05T18:46:03.796Z,3.80
2018-12-05T18:48:38.008Z,3.70
2018-12-05T18:51:12.858Z,3.70
2018-12-05T18:53:46.980Z,3.70
2018-12-05T18:56:21.252Z,3.80
2018-12-05T18:58:55.590Z,3.70
2018-12-05T19:01:29.807Z,3.70
2018-12-05T19:04:03.907Z,3.70
2018-12-05T19:06:38.019Z,3.80
2018-12-05T19:09:12.338Z,3.80
2018-12-05T19:11:46.394Z,3.80
2018-12-05T19:14:26.215Z,3.70
2018-12-05T19:17:00.215Z,3.80
2018-12-05T19:19:34.591Z,3.80
2018-12-05T19:22:08.388Z,3.80
2018-12-05T19:24:42.419Z,3.80
2018-12-05T19:27:16.515Z,3.80
2018-12-05T19:29:51.494Z,3.80
2018-12-05T19:32:25.424Z,3.80
2018-12-05T19:34:59.512Z,3.80
2018-12-05T19:37:33.599Z,3.80
2018-12-05T19:40:07.859Z,3.80
2018-12-05T19:42:41.757Z,3.80
2018-12-05T19:45:15.806Z,3.80
2018-12-05T19:47:49.963Z,3.90
2018-12-05T19:50:24.215Z,3.90
2018-12-05T19:52:58.486Z,3.90
2018-12-05T19:55:32.667Z,3.90
2018-12-05T19:58:06.682Z,3.90
2018-12-05T20:00:40.980Z,3.80
2018-12-05T20:03:14.927Z,3.90
2018-12-05T20:05:50.525Z,3.90
2018-12-05T20:08:24.506Z,3.90
2018-12-05T20:10:59.002Z,3.90
2018-12-05T20:13:35.077Z,3.90
2018-12-05T20:16:09.872Z,3.90
2018-12-05T20:18:43.926Z,3.90
2018-12-05T20:21:18.103Z,3.90
2018-12-05T20:23:52.066Z,3.90
2018-12-05T20:26:26.120Z,3.90
2018-12-05T20:29:00.190Z,3.90
2018-12-05T20:31:34.651Z,3.90
2018-12-05T20:34:09.531Z,3.90
2018-12-05T20:36:43.581Z,3.90
2018-12-05T20:39:17.449Z,3.90
2018-12-05T20:41:55.303Z,3.90
2018-12-05T20:44:29.211Z,3.90
2018-12-05T20:47:04.332Z,3.90
2018-12-05T20:49:38.143Z,3.90
2018-12-05T20:52:12.271Z,3.90
2018-12-05T20:54:46.112Z,3.90
2018-12-05T20:57:20.095Z,4.00
2018-12-05T20:59:53.923Z,4.00
2018-12-05T21:02:27.978Z,4.00
2018-12-05T21:05:01.979Z,4.00
2018-12-05T21:07:36.178Z,4.00
2018-12-05T21:10:10.155Z,4.00
2018-12-05T21:12:44.102Z,4.00
2018-12-05T21:15:18.212Z,4.00
2018-12-05T21:17:52.922Z,4.10
2018-12-05T21:20:26.850Z,4.10
2018-12-05T21:23:01.015Z,4.10
2018-12-05T21:25:34.989Z,4.00
2018-12-05T21:28:09.355Z,4.10
2018-12-05T21:30:43.179Z,4.10
2018-12-05T21:33:17.467Z,4.10
2018-12-05T21:35:51.466Z,4.10
2018-12-05T21:38:25.630Z,4.20
2018-12-05T21:40:59.827Z,4.20
2018-12-05T21:43:34.355Z,4.20
2018-12-05T21:46:08.392Z,4.20
2018-12-05T21:48:42.414Z,4.20
2018-12-05T21:51:16.515Z,4.20
2018-12-05T21:53:50.573Z,4.20
2018-12-05T21:56:24.614Z,4.20
2018-12-05T21:58:58.699Z,4.20
2018-12-05T22:01:33.260Z,4.20
2018-12-05T22:04:07.215Z,4.20
2018-12-05T22:06:42.066Z,4.20
2018-12-05T22:09:16.158Z,4.20
2018-12-05T22:11:50.311Z,4.30
2018-12-05T22:14:24.301Z,4.30
2018-12-05T22:16:58.328Z,4.30
2018-12-05T22:19:32.555Z,4.40
2018-12-05T22:22:06.842Z,4.30
2018-12-05T22:24:40.783Z,4.30
2018-12-05T22:27:14.793Z,4.40
2018-12-05T22:29:49.914Z,4.40
2018-12-05T22:32:24.048Z,4.40
2018-12-05T22:34:58.019Z,4.40
2018-12-05T22:37:32.377Z,4.40
2018-12-05T22:40:08.116Z,4.40
2018-12-05T22:42:42.455Z,4.40
2018-12-05T22:45:16.561Z,4.40
2018-12-05T22:47:50.779Z,4.40
2018-12-05T22:50:25.075Z,4.40
2018-12-05T22:52:59.213Z,4.30
2018-12-05T22:55:33.330Z,4.30
2018-12-05T22:58:07.675Z,4.40
2018-12-05T23:00:43.689Z,4.30
2018-12-05T23:03:17.855Z,4.30
2018-12-05T23:05:51.743Z,4.30
2018-12-05T23:08:25.925Z,4.40
2018-12-05T23:11:00.042Z,4.30
2018-12-05T23:13:34.179Z,4.30
2018-12-05T23:16:08.294Z,4.30
2018-12-05T23:18:42.942Z,4.30
2018-12-05T23:21:17.135Z,4.30
2018-12-05T23:23:51.214Z,4.30
2018-12-05T23:26:25.566Z,4.30
2018-12-05T23:28:59.571Z,4.30
2018-12-05T23:31:34.118Z,4.30
2018-12-05T23:34:08.511Z,4.30
2018-12-05T23:36:43.370Z,4.30
2018-12-05T23:39:18.153Z,4.30
2018-12-05T23:41:52.098Z,4.30
2018-12-05T23:44:26.299Z,4.30
2018-12-05T23:47:00.253Z,4.30
2018-12-05T23:49:34.531Z,4.30
2018-12-05T23:52:08.512Z,4.30
2018-12-05T23:54:42.960Z,4.20
2018-12-05T23:57:16.877Z,4.20
2018-12-05T23:59:51.101Z,4.20
